createdAt,value
2023-05-22T00:01:30.264Z,101098.84
2023-05-22T00:03:57.518Z,101097.38
2023-05-22T00:06:25.232Z,101100.69
2023-05-22T00:08:52.573Z,101090.75
2023-05-22T00:11:19.915Z,101086.00
2023-05-22T00:13:47.245Z,101100.41
2023-05-22T00:16:14.609Z,101102.41
2023-05-22T00:18:44.883Z,101097.06
2023-05-22T00:21:12.398Z,101087.59
2023-05-22T00:23:39.780Z,101091.41
2023-05-22T00:26:07.183Z,101093.75
2023-05-22T00:28:34.436Z,101095.00
2023-05-22T00:31:01.668Z,101092.25
2023-05-22T00:33:28.973Z,101096.38
2023-05-22T00:35:56.610Z,101096.59
2023-05-22T00:38:32.819Z,101099.91
2023-05-22T00:41:01.396Z,101096.66
2023-05-22T00:43:28.813Z,101095.00
2023-05-22T00:45:56.772Z,101086.72
2023-05-22T00:48:24.484Z,101098.13
2023-05-22T00:50:55.432Z,101092.38
2023-05-22T00:53:24.471Z,101088.63
2023-05-22T00:55:52.949Z,101090.06
2023-05-22T00:58:21.864Z,101081.09
2023-05-22T01:00:49.481Z,101084.84
2023-05-22T01:03:17.776Z,101081.84
2023-05-22T01:05:46.069Z,101078.47
2023-05-22T01:08:13.448Z,101076.19
2023-05-22T01:10:41.156Z,101072.19
2023-05-22T01:13:36.787Z,101068.53
2023-05-22T01:16:23.597Z,101072.25
2023-05-22T01:19:18.077Z,101076.34
2023-05-22T01:22:00.061Z,101082.09
2023-05-22T01:25:30.130Z,101084.88
2023-05-22T01:28:16.111Z,101084.78
2023-05-22T01:31:03.148Z,101081.91
2023-05-22T01:33:36.300Z,101079.09
2023-05-22T01:36:05.506Z,101070.94
2023-05-22T01:38:34.196Z,101078.84
2023-05-22T01:41:01.794Z,101079.19
2023-05-22T01:43:29.079Z,101080.25
2023-05-22T01:45:56.534Z,101074.47
2023-05-22T01:48:23.805Z,101079.19
2023-05-22T01:50:52.357Z,101069.06
2023-05-22T01:53:25.932Z,101084.44
2023-05-22T01:56:21.070Z,101076.41
2023-05-22T01:58:50.682Z,101081.00
2023-05-22T02:01:19.563Z,101080.03
2023-05-22T02:03:48.280Z,101087.34
2023-05-22T02:06:17.304Z,101080.84
2023-05-22T02:08:45.088Z,101081.16
2023-05-22T02:11:12.753Z,101084.59
2023-05-22T02:13:40.186Z,101084.75
2023-05-22T02:16:07.770Z,101085.75
2023-05-22T02:18:35.351Z,101076.91
2023-05-22T02:21:03.351Z,101079.03
2023-05-22T02:23:32.561Z,101086.88
2023-05-22T02:26:02.873Z,101075.31
2023-05-22T02:28:30.577Z,101084.59
2023-05-22T02:30:57.932Z,101086.22
2023-05-22T02:33:25.281Z,101076.94
2023-05-22T02:35:54.339Z,101074.19
2023-05-22T02:38:21.691Z,101076.13
2023-05-22T02:40:50.029Z,101067.97
2023-05-22T02:43:17.319Z,101067.97
2023-05-22T02:45:44.958Z,101081.66
2023-05-22T02:48:13.142Z,101076.75
2023-05-22T02:50:40.773Z,101073.34
2023-05-22T02:53:08.464Z,101069.44
2023-05-22T02:55:35.991Z,101075.50
2023-05-22T02:58:03.547Z,101072.03
2023-05-22T03:00:31.293Z,101079.22
2023-05-22T03:02:58.796Z,101077.13
2023-05-22T03:05:26.180Z,101086.72
2023-05-22T03:07:53.428Z,101074.66
2023-05-22T03:10:20.729Z,101068.47
2023-05-22T03:12:48.480Z,101081.66
2023-05-22T03:15:16.016Z,101077.41
2023-05-22T03:17:44.540Z,101078.41
2023-05-22T03:20:16.941Z,101084.69
2023-05-22T03:22:45.117Z,101087.34
2023-05-22T03:25:13.089Z,101085.50
2023-05-22T03:27:43.629Z,101088.59
2023-05-22T03:30:11.548Z,101082.31
2023-05-22T03:32:41.775Z,101082.59
2023-05-22T03:35:09.676Z,101080.59
2023-05-22T03:37:37.060Z,101084.50
2023-05-22T03:40:05.056Z,101084.41
2023-05-22T03:42:34.824Z,101076.78
2023-05-22T03:45:02.259Z,101074.19
2023-05-22T03:47:29.680Z,101077.44
2023-05-22T03:49:57.027Z,101074.47
2023-05-22T03:52:24.482Z,101063.66
2023-05-22T03:54:52.067Z,101074.88
2023-05-22T03:57:20.218Z,101077.19
2023-05-22T03:59:47.532Z,101083.66
2023-05-22T04:02:16.893Z,101086.38
2023-05-22T04:04:46.395Z,101088.00
2023-05-22T04:07:13.981Z,101093.38
2023-05-22T04:09:41.625Z,101109.50
2023-05-22T04:12:09.152Z,101104.31
2023-05-22T04:14:36.438Z,101105.47
2023-05-22T04:17:03.884Z,101106.97
2023-05-22T04:19:31.302Z,101090.50
2023-05-22T04:21:59.102Z,101096.97
2023-05-22T04:24:27.673Z,101097.81
2023-05-22T04:26:55.098Z,101098.06
2023-05-22T04:29:22.842Z,101096.31
2023-05-22T04:31:50.156Z,101090.91
2023-05-22T04:34:18.482Z,101085.59
2023-05-22T04:36:46.947Z,101091.41
2023-05-22T04:39:15.110Z,101098.19
2023-05-22T04:41:42.902Z,101102.19
2023-05-22T04:44:10.378Z,101114.88
2023-05-22T04:46:38.598Z,101110.41
2023-05-22T04:49:06.123Z,101116.06
2023-05-22T04:51:35.070Z,101120.44
2023-05-22T04:54:02.589Z,101126.69
2023-05-22T04:56:36.099Z,101126.53
2023-05-22T04:59:05.459Z,101124.25
2023-05-22T05:01:35.177Z,101133.69
2023-05-22T05:04:03.925Z,101123.56
2023-05-22T05:06:31.363Z,101123.56
2023-05-22T05:08:58.766Z,101122.38
2023-05-22T05:11:26.157Z,101131.16
2023-05-22T05:13:53.615Z,101132.00
2023-05-22T05:16:21.079Z,101127.72
2023-05-22T05:18:48.373Z,101125.63
2023-05-22T05:21:15.822Z,101120.88
2023-05-22T05:23:43.381Z,101125.81
2023-05-22T05:26:10.686Z,101119.09
2023-05-22T05:28:38.066Z,101115.34
2023-05-22T05:31:07.859Z,101109.13
2023-05-22T05:33:47.031Z,101109.13
2023-05-22T05:36:21.232Z,101113.72
2023-05-22T05:38:49.056Z,101124.34
2023-05-22T05:41:19.070Z,101121.56
2023-05-22T05:43:49.203Z,101120.00
2023-05-22T05:46:16.876Z,101118.25
2023-05-22T05:48:44.801Z,101119.06
2023-05-22T05:51:12.260Z,101106.25
2023-05-22T05:53:44.583Z,101117.66
2023-05-22T05:56:12.018Z,101107.03
2023-05-22T05:58:39.505Z,101104.97
2023-05-22T06:01:27.001Z,101106.41
2023-05-22T06:03:55.299Z,101117.66
2023-05-22T06:06:26.820Z,101112.59
2023-05-22T06:09:06.781Z,101113.25
2023-05-22T06:11:46.936Z,101103.97
2023-05-22T06:14:14.291Z,101102.03
2023-05-22T06:16:41.765Z,101097.72
2023-05-22T06:19:09.210Z,101101.81
2023-05-22T06:21:36.917Z,101115.50
2023-05-22T06:24:04.783Z,101112.78
2023-05-22T06:26:32.165Z,101119.94
2023-05-22T06:28:59.572Z,101118.97
2023-05-22T06:31:29.142Z,101117.16
2023-05-22T06:33:58.528Z,101111.47
2023-05-22T06:36:26.174Z,101119.28
2023-05-22T06:38:54.780Z,101120.59
2023-05-22T06:41:54.184Z,101125.63
2023-05-22T06:44:21.673Z,101126.78
2023-05-22T06:46:54.862Z,101128.50
2023-05-22T06:49:25.665Z,101129.25
2023-05-22T06:51:55.561Z,101129.22
2023-05-22T06:54:22.976Z,101127.41
2023-05-22T06:56:57.547Z,101132.16
2023-05-22T06:59:27.782Z,101125.69
2023-05-22T07:01:58.116Z,101135.47
2023-05-22T07:05:03.998Z,101137.56
2023-05-22T07:07:37.847Z,101137.94
2023-05-22T07:10:06.549Z,101144.97
2023-05-22T07:12:33.793Z,101143.94
2023-05-22T07:15:01.659Z,101141.66
2023-05-22T07:17:29.602Z,101145.69
2023-05-22T07:19:58.187Z,101138.47
2023-05-22T07:22:26.165Z,101140.94
2023-05-22T07:24:54.466Z,101140.22
2023-05-22T07:27:23.203Z,101144.03
2023-05-22T07:29:51.081Z,101142.97
2023-05-22T07:32:18.947Z,101148.50
2023-05-22T07:34:46.876Z,101162.28
2023-05-22T07:37:14.395Z,101158.13
2023-05-22T07:39:43.679Z,101150.59
2023-05-22T07:42:11.379Z,101158.66
2023-05-22T07:44:46.715Z,101161.44
2023-05-22T07:47:14.128Z,101157.56
2023-05-22T07:49:43.290Z,101151.72
2023-05-22T07:52:11.433Z,101161.28
2023-05-22T07:54:40.776Z,101163.66
2023-05-22T07:57:12.526Z,101164.97
2023-05-22T07:59:43.931Z,101152.28
2023-05-22T08:02:11.579Z,101159.72
2023-05-22T08:04:39.456Z,101152.41
2023-05-22T08:07:07.057Z,101157.03
2023-05-22T08:09:34.450Z,101161.50
2023-05-22T08:12:02.019Z,101160.09
2023-05-22T08:14:30.485Z,101158.38
2023-05-22T08:16:59.220Z,101170.09
2023-05-22T08:19:26.586Z,101164.84
2023-05-22T08:21:58.076Z,101170.16
2023-05-22T08:24:28.612Z,101173.72
2023-05-22T08:26:58.931Z,101169.03
2023-05-22T08:29:26.683Z,101164.72
2023-05-22T08:31:56.877Z,101160.34
2023-05-22T08:34:24.985Z,101165.78
2023-05-22T08:36:52.466Z,101177.50
2023-05-22T08:39:19.891Z,101169.72
2023-05-22T08:41:47.754Z,101172.41
2023-05-22T08:44:15.288Z,101178.38
2023-05-22T08:46:44.178Z,101171.06
2023-05-22T08:49:12.996Z,101173.78
2023-05-22T08:51:42.349Z,101168.69
2023-05-22T08:54:12.509Z,101174.97
2023-05-22T08:56:53.005Z,101177.63
2023-05-22T08:59:24.585Z,101174.81
2023-05-22T09:01:52.520Z,101175.59
2023-05-22T09:04:23.211Z,101178.94
2023-05-22T09:06:52.038Z,101185.97
2023-05-22T09:09:19.629Z,101175.19
2023-05-22T09:11:47.072Z,101190.41
2023-05-22T09:14:15.976Z,101187.59
2023-05-22T09:16:47.291Z,101185.84
2023-05-22T09:19:15.462Z,101181.91
2023-05-22T09:21:44.431Z,101179.06
2023-05-22T09:24:12.039Z,101196.00
2023-05-22T09:26:42.718Z,101186.56
2023-05-22T09:29:10.141Z,101197.25
2023-05-22T09:31:44.495Z,101191.09
2023-05-22T09:34:17.690Z,101183.38
2023-05-22T09:36:45.437Z,101196.72
2023-05-22T09:39:12.776Z,101180.91
2023-05-22T09:41:40.456Z,101182.88
2023-05-22T09:44:14.868Z,101181.16
2023-05-22T09:46:46.412Z,101178.03
2023-05-22T09:49:16.440Z,101171.81
2023-05-22T09:51:47.693Z,101184.41
2023-05-22T09:54:16.218Z,101172.97
2023-05-22T09:56:44.412Z,101172.41
2023-05-22T09:59:12.653Z,101174.81
2023-05-22T10:01:40.739Z,101177.19
2023-05-22T10:04:12.185Z,101175.00
2023-05-22T10:06:40.640Z,101181.50
2023-05-22T10:09:09.840Z,101186.16
2023-05-22T10:11:38.036Z,101188.38
2023-05-22T10:14:05.654Z,101176.72
2023-05-22T10:16:34.337Z,101172.09
2023-05-22T10:19:01.847Z,101173.06
2023-05-22T10:21:32.387Z,101164.88
2023-05-22T10:24:01.142Z,101165.88
2023-05-22T10:26:29.785Z,101171.16
2023-05-22T10:29:04.697Z,101168.72
2023-05-22T10:32:16.733Z,101173.84
2023-05-22T10:35:02.334Z,101174.50
2023-05-22T10:37:55.477Z,101159.16
2023-05-22T10:40:29.256Z,101161.72
2023-05-22T10:42:58.647Z,101168.81
2023-05-22T10:45:28.262Z,101166.44
2023-05-22T10:48:05.016Z,101159.41
2023-05-22T10:50:32.875Z,101142.34
2023-05-22T10:53:23.525Z,101142.72
2023-05-22T10:55:55.708Z,101138.13
2023-05-22T10:58:30.775Z,101136.59
2023-05-22T11:01:17.812Z,101135.69
2023-05-22T11:04:06.771Z,101123.00
2023-05-22T11:06:35.470Z,101138.66
2023-05-22T11:09:29.081Z,101127.28
2023-05-22T11:12:17.210Z,101129.72
2023-05-22T11:15:08.339Z,101130.00
2023-05-22T11:17:45.442Z,101127.00
2023-05-22T11:20:20.979Z,101121.34
2023-05-22T11:23:02.203Z,101125.94
2023-05-22T11:25:30.252Z,101128.44
2023-05-22T11:27:57.820Z,101120.66
2023-05-22T11:30:26.936Z,101129.53
2023-05-22T11:32:54.668Z,101128.75
2023-05-22T11:35:22.350Z,101122.06
2023-05-22T11:37:51.331Z,101132.59
2023-05-22T11:40:21.263Z,101125.22
2023-05-22T11:42:48.826Z,101109.75
2023-05-22T11:45:17.873Z,101119.13
2023-05-22T11:47:45.531Z,101125.91
2023-05-22T11:50:13.076Z,101125.44
2023-05-22T11:52:45.988Z,101118.09
2023-05-22T11:55:13.326Z,101126.00
2023-05-22T11:57:40.636Z,101112.84
2023-05-22T12:00:08.917Z,101111.66
2023-05-22T12:02:39.600Z,101118.19
2023-05-22T12:05:10.296Z,101114.63
2023-05-22T12:07:37.832Z,101110.41
2023-05-22T12:10:07.310Z,101112.34
2023-05-22T12:12:34.782Z,101097.69
2023-05-22T12:15:05.943Z,101111.16
2023-05-22T12:17:35.843Z,101116.13
2023-05-22T12:20:04.825Z,101107.59
2023-05-22T12:22:32.109Z,101104.63
2023-05-22T12:25:00.885Z,101116.34
2023-05-22T12:27:33.222Z,101110.06
2023-05-22T12:30:09.230Z,101116.41
2023-05-22T12:32:36.708Z,101107.03
2023-05-22T12:35:04.289Z,101112.78
2023-05-22T12:37:33.872Z,101111.19
2023-05-22T12:40:04.163Z,101103.72
2023-05-22T12:42:31.506Z,101108.03
2023-05-22T12:45:00.686Z,101106.06
2023-05-22T12:47:28.230Z,101116.31
2023-05-22T12:49:55.864Z,101113.78
2023-05-22T12:52:23.170Z,101118.78
2023-05-22T12:54:50.835Z,101123.66
2023-05-22T12:57:18.221Z,101112.63
2023-05-22T12:59:45.652Z,101121.59
2023-05-22T13:02:13.014Z,101117.88
2023-05-22T13:04:40.456Z,101125.13
2023-05-22T13:07:08.000Z,101119.44
2023-05-22T13:09:35.678Z,101114.84
2023-05-22T13:12:03.059Z,101116.25
2023-05-22T13:14:30.368Z,101113.78
2023-05-22T13:16:57.724Z,101114.13
2023-05-22T13:19:25.132Z,101100.38
2023-05-22T13:21:52.426Z,101107.38
2023-05-22T13:24:19.710Z,101110.50
2023-05-22T13:26:46.949Z,101109.88
2023-05-22T13:29:15.140Z,101101.97
2023-05-22T13:31:42.486Z,101100.53
2023-05-22T13:34:10.117Z,101110.66
2023-05-22T13:36:37.637Z,101098.97
2023-05-22T13:39:05.018Z,101103.88
2023-05-22T13:41:32.337Z,101101.31
2023-05-22T13:43:59.592Z,101109.72
2023-05-22T13:46:26.877Z,101099.66
2023-05-22T13:48:54.351Z,101112.72
2023-05-22T13:51:21.658Z,101109.69
2023-05-22T13:53:48.986Z,101112.97
2023-05-22T13:56:16.517Z,101108.75
2023-05-22T13:58:44.109Z,101106.50
2023-05-22T14:01:11.517Z,101109.47
2023-05-22T14:03:38.941Z,101122.47
2023-05-22T14:06:06.501Z,101112.72
2023-05-22T14:08:33.862Z,101114.34
2023-05-22T14:11:01.238Z,101103.59
2023-05-22T14:13:28.659Z,101104.34
2023-05-22T14:15:56.314Z,101108.50
2023-05-22T14:18:23.687Z,101112.28
2023-05-22T14:20:51.108Z,101103.59
2023-05-22T14:23:18.464Z,101105.66
2023-05-22T14:25:46.395Z,101101.38
2023-05-22T14:28:14.133Z,101097.63
2023-05-22T14:30:41.968Z,101094.84
2023-05-22T14:33:12.211Z,101099.06
2023-05-22T14:35:39.669Z,101095.38
2023-05-22T14:38:07.112Z,101109.56
2023-05-22T14:40:34.343Z,101098.31
2023-05-22T14:43:01.728Z,101103.47
2023-05-22T14:45:29.009Z,101111.25
2023-05-22T14:47:56.359Z,101108.66
2023-05-22T14:50:23.692Z,101114.31
2023-05-22T14:52:51.301Z,101113.38
2023-05-22T14:55:18.851Z,101101.31
2023-05-22T14:57:46.130Z,101095.94
2023-05-22T15:00:14.267Z,101108.59
2023-05-22T15:02:41.657Z,101109.41
2023-05-22T15:05:09.751Z,101102.06
2023-05-22T15:10:08.969Z,101093.63
2023-05-22T15:12:36.328Z,101092.16
2023-05-22T15:15:04.153Z,101103.16
2023-05-22T15:17:31.506Z,101100.44
2023-05-22T15:19:58.885Z,101097.03
2023-05-22T15:22:26.281Z,101096.22
2023-05-22T15:25:07.423Z,101097.13
2023-05-22T15:27:35.629Z,101091.03
2023-05-22T15:30:04.262Z,101088.28
2023-05-22T15:32:32.543Z,101090.72
2023-05-22T15:35:00.004Z,101092.16
2023-05-22T15:37:32.449Z,101100.44
2023-05-22T15:40:01.430Z,101090.06
2023-05-22T15:42:29.270Z,101084.75
2023-05-22T15:44:58.927Z,101087.09
2023-05-22T15:47:26.276Z,101093.78
2023-05-22T15:49:53.779Z,101082.50
2023-05-22T15:52:23.391Z,101095.09
2023-05-22T15:54:50.759Z,101091.94
2023-05-22T15:57:18.185Z,101090.47
2023-05-22T15:59:47.490Z,101082.63
2023-05-22T16:02:14.979Z,101081.41
2023-05-22T16:04:42.514Z,101088.25
2023-05-22T16:07:09.893Z,101086.56
2023-05-22T16:09:37.307Z,101084.28
2023-05-22T16:12:05.095Z,101083.28
2023-05-22T16:14:32.469Z,101087.38
2023-05-22T16:16:59.851Z,101082.25
2023-05-22T16:19:30.366Z,101090.69
2023-05-22T16:21:57.945Z,101086.00
2023-05-22T16:24:25.329Z,101090.81
2023-05-22T16:26:52.676Z,101087.31
2023-05-22T16:29:20.766Z,101098.78
2023-05-22T16:31:48.167Z,101090.94
2023-05-22T16:34:15.842Z,101095.72
2023-05-22T16:36:43.410Z,101099.72
2023-05-22T16:39:11.435Z,101100.44
2023-05-22T16:41:39.009Z,101096.41
2023-05-22T16:44:06.367Z,101101.59
2023-05-22T16:46:33.784Z,101113.31
2023-05-22T16:49:01.117Z,101100.28
2023-05-22T16:51:28.399Z,101114.56
2023-05-22T16:53:55.710Z,101114.09
2023-05-22T16:56:23.065Z,101115.03
2023-05-22T16:58:50.517Z,101117.41
2023-05-22T17:01:17.962Z,101123.16
2023-05-22T17:03:45.353Z,101120.69
2023-05-22T17:06:12.704Z,101120.22
2023-05-22T17:08:40.039Z,101133.56
2023-05-22T17:11:07.769Z,101133.84
2023-05-22T17:13:35.341Z,101129.00
2023-05-22T17:16:02.870Z,101127.31
2023-05-22T17:18:30.863Z,101131.16
2023-05-22T17:20:58.198Z,101135.94
2023-05-22T17:23:25.898Z,101137.03
2023-05-22T17:25:53.333Z,101147.28
2023-05-22T17:28:20.955Z,101139.53
2023-05-22T17:30:48.426Z,101134.56
2023-05-22T17:33:15.860Z,101143.44
2023-05-22T17:35:43.263Z,101144.19
2023-05-22T17:38:10.626Z,101137.44
2023-05-22T17:40:44.716Z,101135.84
2023-05-22T17:43:13.681Z,101147.94
2023-05-22T17:45:41.834Z,101158.81
2023-05-22T17:48:09.641Z,101149.69
2023-05-22T17:50:37.284Z,101150.72
2023-05-22T17:53:04.643Z,101157.59
2023-05-22T17:55:32.020Z,101164.97
2023-05-22T17:57:59.849Z,101159.31
2023-05-22T18:00:27.289Z,101166.31
2023-05-22T18:02:54.634Z,101174.59
2023-05-22T18:05:22.132Z,101176.81
2023-05-22T18:07:49.472Z,101179.59
2023-05-22T18:10:17.018Z,101173.63
2023-05-22T18:12:44.445Z,101189.47
2023-05-22T18:15:12.345Z,101187.69
2023-05-22T18:17:41.298Z,101194.34
2023-05-22T18:20:11.936Z,101207.50
2023-05-22T18:22:40.057Z,101202.53
2023-05-22T18:25:08.002Z,101198.97
2023-05-22T18:27:36.141Z,101206.22
2023-05-22T18:30:05.063Z,101221.72
2023-05-22T18:32:32.505Z,101210.69
2023-05-22T18:35:02.355Z,101220.28
2023-05-22T18:37:29.828Z,101221.44
2023-05-22T18:39:57.542Z,101206.00
2023-05-22T18:42:24.913Z,101215.88
2023-05-22T18:44:52.261Z,101216.28
2023-05-22T18:47:19.767Z,101221.06
2023-05-22T18:49:47.204Z,101236.25
2023-05-22T18:52:14.534Z,101231.69
2023-05-22T18:54:41.854Z,101233.63
2023-05-22T18:57:09.218Z,101221.03
2023-05-22T18:59:37.548Z,101234.81
2023-05-22T19:02:05.187Z,101240.81
2023-05-22T19:04:32.509Z,101230.81
2023-05-22T19:07:00.286Z,101233.13
2023-05-22T19:09:27.690Z,101239.28
2023-05-22T19:11:55.013Z,101233.19
2023-05-22T19:14:22.380Z,101244.44
2023-05-22T19:16:49.703Z,101247.38
2023-05-22T19:19:17.093Z,101252.34
2023-05-22T19:21:44.473Z,101251.06
2023-05-22T19:24:11.821Z,101253.88
2023-05-22T19:26:39.299Z,101246.19
2023-05-22T19:29:06.589Z,101265.09
2023-05-22T19:31:34.423Z,101252.03
2023-05-22T19:34:02.197Z,101267.53
2023-05-22T19:36:29.566Z,101259.47
2023-05-22T19:38:56.914Z,101267.44
2023-05-22T19:41:24.353Z,101275.16
2023-05-22T19:43:51.830Z,101280.03
2023-05-22T19:46:19.269Z,101286.00
2023-05-22T19:48:46.656Z,101295.59
2023-05-22T19:51:14.062Z,101307.09
2023-05-22T19:53:41.585Z,101297.00
2023-05-22T19:56:08.937Z,101300.19
2023-05-22T19:58:36.268Z,101308.50
2023-05-22T20:01:03.723Z,101313.38
2023-05-22T20:03:31.487Z,101317.84
2023-05-22T20:05:59.020Z,101314.50
2023-05-22T20:08:26.364Z,101320.06
2023-05-22T20:10:53.859Z,101320.44
2023-05-22T20:13:21.268Z,101332.41
2023-05-22T20:15:51.343Z,101338.00
2023-05-22T20:18:18.974Z,101346.81
2023-05-22T20:20:46.122Z,101351.56
2023-05-22T20:23:13.506Z,101355.56
2023-05-22T20:25:41.128Z,101345.72
2023-05-22T20:28:08.693Z,101356.50
2023-05-22T20:30:36.267Z,101360.03
2023-05-22T20:33:03.755Z,101360.00
2023-05-22T20:35:31.427Z,101371.44
2023-05-22T20:38:03.146Z,101380.88
2023-05-22T20:40:32.455Z,101387.34
2023-05-22T20:43:02.622Z,101375.94
2023-05-22T20:45:30.717Z,101384.25
2023-05-22T20:47:58.093Z,101394.63
2023-05-22T20:50:25.544Z,101391.41
2023-05-22T20:52:53.018Z,101397.88
2023-05-22T20:55:20.857Z,101396.44
2023-05-22T20:57:48.326Z,101401.97
2023-05-22T21:00:15.734Z,101394.91
2023-05-22T21:02:43.233Z,101408.03
2023-05-22T21:05:10.665Z,101409.84
2023-05-22T21:07:38.133Z,101407.97
2023-05-22T21:10:06.361Z,101410.09
2023-05-22T21:12:33.760Z,101412.63
2023-05-22T21:15:01.101Z,101415.22
2023-05-22T21:17:28.342Z,101412.94
2023-05-22T21:19:55.767Z,101409.34
2023-05-22T21:22:23.236Z,101402.63
2023-05-22T21:24:50.710Z,101411.72
2023-05-22T21:27:17.967Z,101401.41
2023-05-22T21:29:45.315Z,101413.44
2023-05-22T21:32:12.583Z,101399.00
2023-05-22T21:34:39.825Z,101407.19
2023-05-22T21:37:07.149Z,101402.47
2023-05-22T21:39:34.531Z,101408.97
2023-05-22T21:42:01.905Z,101407.34
2023-05-22T21:44:29.281Z,101421.75
2023-05-22T21:46:56.558Z,101423.72
2023-05-22T21:49:23.872Z,101422.03
2023-05-22T21:51:51.182Z,101429.91
2023-05-22T21:54:18.403Z,101432.47
2023-05-22T21:56:45.938Z,101432.22
2023-05-22T21:59:13.227Z,101429.94
2023-05-22T22:01:41.351Z,101425.50
2023-05-22T22:04:08.750Z,101428.28
2023-05-22T22:06:36.748Z,101428.72
2023-05-22T22:09:04.373Z,101427.50
2023-05-22T22:11:31.665Z,101439.47
2023-05-22T22:13:58.913Z,101433.13
2023-05-22T22:16:26.325Z,101430.69
2023-05-22T22:18:53.967Z,101428.72
2023-05-22T22:21:21.294Z,101433.31
2023-05-22T22:23:48.613Z,101438.31
2023-05-22T22:26:16.225Z,101435.56
2023-05-22T22:28:43.573Z,101433.97
2023-05-22T22:31:11.308Z,101442.59
2023-05-22T22:33:38.670Z,101446.31
2023-05-22T22:36:06.214Z,101440.00
2023-05-22T22:38:35.046Z,101435.59
2023-05-22T22:41:04.825Z,101436.66
2023-05-22T22:43:32.220Z,101449.38
2023-05-22T22:45:59.555Z,101452.31
2023-05-22T22:48:27.565Z,101446.78
2023-05-22T22:50:54.900Z,101437.56
2023-05-22T22:53:22.205Z,101441.72
2023-05-22T22:55:54.548Z,101442.47
2023-05-22T22:58:21.876Z,101445.31
2023-05-22T23:00:49.169Z,101448.34
2023-05-22T23:03:16.607Z,101442.78
2023-05-22T23:05:44.061Z,101447.38
2023-05-22T23:08:11.648Z,101454.59
2023-05-22T23:10:38.924Z,101465.22
2023-05-22T23:13:06.654Z,101452.56
2023-05-22T23:15:34.206Z,101461.16
2023-05-22T23:18:01.908Z,101457.34
2023-05-22T23:20:29.244Z,101457.31
2023-05-22T23:22:56.506Z,101473.34
2023-05-22T23:25:23.925Z,101457.00
2023-05-22T23:27:52.145Z,101455.09
2023-05-22T23:30:19.639Z,101457.72
2023-05-22T23:32:46.956Z,101462.13
2023-05-22T23:35:14.316Z,101458.84
2023-05-22T23:37:41.574Z,101464.56
2023-05-22T23:40:09.774Z,101462.75
2023-05-22T23:42:37.402Z,101453.56
2023-05-22T23:45:05.193Z,101460.47
2023-05-22T23:47:32.577Z,101453.25
2023-05-22T23:50:00.314Z,101470.09
2023-05-22T23:52:27.729Z,101474.16
2023-05-22T23:54:55.001Z,101475.50
2023-05-22T23:57:22.322Z,101486.78
2023-05-22T23:59:49.714Z,101471.44
